Time;durP1;ratioP1;P1;durP2;ratioP2;P2;SDS_P1;SDS_P2;PMS_P1;PMS_P2;Temp;Humidity;BMP_temperature;BMP_pressure;BME280_temperature;BME280_humidity;BME280_pressure;Samples;Min_cycle;Max_cycle;Signal;HPM_P1;HPM_P2
2022/06/03 16:13:23;;;;;;;3.78;2.00;;;;;;;;;;5084002;28;21256;-61
2022/06/03 16:15:58;;;;;;;6.97;2.45;;;;;;;;;;5071675;28;20025;-62
2022/06/03 16:18:50;;;;;;;3.60;1.90;;;;;;;;;;5078344;28;20091;-68
2022/06/03 16:21:28;;;;;;;4.93;2.28;;;;;;;;;;5064207;28;20033;-62
2022/06/03 16:23:57;;;;;;;8.32;2.00;;;;;;;;;;5083164;28;20056;-60
2022/06/03 16:26:30;;;;;;;10.60;2.50;;;;;;;;;;5071820;28;20055;-60
2022/06/03 16:28:56;;;;;;;4.78;2.15;;;;;;;;;;5065725;28;20020;-60
2022/06/03 16:31:22;;;;;;;5.60;2.30;;;;;;;;;;5080976;28;20577;-61
2022/06/03 16:34:00;;;;;;;4.97;2.35;;;;;;;;;;5067255;28;20028;-62
2022/06/03 16:36:35;;;;;;;4.90;2.40;;;;;;;;;;5064985;28;20021;-63
2022/06/03 16:39:06;;;;;;;4.38;2.55;;;;;;;;;;5066503;28;20024;-59
2022/06/03 16:41:47;;;;;;;6.07;2.80;;;;;;;;;;5066360;28;20059;-63
2022/06/03 16:44:25;;;;;;;4.18;2.40;;;;;;;;;;5081095;28;20391;-62
2022/06/03 16:47:00;;;;;;;6.63;2.40;;;;;;;;;;5065681;28;20103;-61
2022/06/03 16:49:31;;;;;;;5.13;2.53;;;;;;;;;;5073688;28;20028;-64
2022/06/03 16:52:01;;;;;;;3.42;2.20;;;;;;;;;;5069654;28;20063;-65
2022/06/03 16:54:27;;;;;;;4.53;2.20;;;;;;;;;;5078919;28;20025;-62
2022/06/03 16:56:59;;;;;;;4.25;2.40;;;;;;;;;;5066592;28;20032;-68
2022/06/03 16:59:25;;;;;;;7.47;2.65;;;;;;;;;;5076403;28;20526;-61
2022/06/03 17:01:52;;;;;;;4.47;2.38;;;;;;;;;;5083983;28;20398;-61
2022/06/03 17:04:24;;;;;;;5.05;2.70;;;;;;;;;;5071471;28;20054;-64
2022/06/03 17:06:56;;;;;;;8.73;3.00;;;;;;;;;;5077846;28;20048;-66
2022/06/03 17:09:27;;;;;;;6.28;2.67;;;;;;;;;;5052343;28;20033;-64
2022/06/03 17:11:53;;;;;;;4.97;2.45;;;;;;;;;;5062485;28;20552;-63
2022/06/03 17:14:23;;;;;;;6.90;3.10;;;;;;;;;;5045274;28;20037;-70
2022/06/03 17:16:51;;;;;;;8.13;3.55;;;;;;;;;;5057095;28;20107;-62
2022/06/03 17:19:17;;;;;;;5.45;2.78;;;;;;;;;;5051445;28;20428;-62
2022/06/03 17:21:49;;;;;;;7.50;3.75;;;;;;;;;;5047511;28;20025;-60
2022/06/03 17:24:18;;;;;;;4.93;3.20;;;;;;;;;;5044524;28;20116;-60
2022/06/03 17:27:03;;;;;;;8.35;4.80;;;;;;;;;;5032995;28;20053;-61
2022/06/03 17:29:35;;;;;;;6.97;4.03;;;;;;;;;;5038830;28;20029;-65
2022/06/03 17:32:01;;;;;;;;;;;;;;;;;;5031996;28;20029;-63
2022/06/03 17:34:33;;;;;;;6.22;3.40;;;;;;;;;;5043338;28;20395;-68
2022/06/03 17:37:02;;;;;;;6.57;2.90;;;;;;;;;;5033690;28;20095;-62
2022/06/03 17:39:37;;;;;;;6.90;3.00;;;;;;;;;;5023664;28;20120;-65
2022/06/03 17:42:06;;;;;;;3.90;2.55;;;;;;;;;;5029884;28;20063;-72
2022/06/03 17:44:51;;;;;;;5.95;2.72;;;;;;;;;;5031657;28;20021;-60
2022/06/03 17:47:37;;;;;;;4.32;2.72;;;;;;;;;;5035470;28;20036;-62
2022/06/03 17:50:05;;;;;;;6.60;3.20;;;;;;;;;;5031791;28;20026;-64
2022/06/03 17:55:35;;;;;;;4.47;2.70;;;;;;;;;;5036336;28;20036;-61
2022/06/03 17:58:12;;;;;;;7.18;3.53;;;;;;;;;;5040858;28;20546;-62
2022/06/03 18:00:45;;;;;;;9.38;4.55;;;;;;;;;;5042835;28;20022;-62
2022/06/03 18:03:11;;;;;;;7.90;4.85;;;;;;;;;;5041497;28;20037;-62
2022/06/03 18:05:37;;;;;;;8.82;3.65;;;;;;;;;;5048952;28;20029;-69
2022/06/03 18:08:12;;;;;;;9.23;4.60;;;;;;;;;;5036847;28;20377;-62
2022/06/03 18:10:40;;;;;;;9.43;3.90;;;;;;;;;;5042070;28;20021;-62
2022/06/03 18:13:06;;;;;;;7.82;4.45;;;;;;;;;;5031543;28;20523;-63
2022/06/03 18:15:33;;;;;;;10.55;5.07;;;;;;;;;;5027487;28;20049;-62
2022/06/03 18:18:06;;;;;;;8.65;4.28;;;;;;;;;;5047918;28;20025;-66
2022/06/03 18:20:35;;;;;;;7.22;4.10;;;;;;;;;;5040420;28;20409;-64
2022/06/03 18:23:08;;;;;;;9.02;4.97;;;;;;;;;;5039670;28;20416;-63
2022/06/03 18:25:39;;;;;;;8.82;5.72;;;;;;;;;;5048068;28;20033;-61
2022/06/03 18:28:32;;;;;;;14.00;5.88;;;;;;;;;;5036566;28;20052;-61
2022/06/03 18:30:58;;;;;;;;;;;;;;;;;;5024420;28;20137;-62
2022/06/03 18:33:42;;;;;;;10.23;4.65;;;;;;;;;;5040992;28;20008;-66
2022/06/03 18:36:27;;;;;;;12.30;5.10;;;;;;;;;;5034344;28;20021;-59
2022/06/03 18:38:54;;;;;;;15.95;4.75;;;;;;;;;;5035081;28;20035;-61
2022/06/03 18:41:22;;;;;;;10.38;4.95;;;;;;;;;;5046831;28;20029;-61
2022/06/03 18:43:51;;;;;;;9.77;5.13;;;;;;;;;;5031380;28;20033;-61
2022/06/03 18:46:33;;;;;;;9.20;4.50;;;;;;;;;;5028327;28;20026;-61
2022/06/03 18:49:01;;;;;;;9.48;4.20;;;;;;;;;;5031063;28;20059;-62
2022/06/03 18:51:34;;;;;;;7.47;4.13;;;;;;;;;;5029677;28;20489;-61
2022/06/03 18:54:00;;;;;;;9.10;4.35;;;;;;;;;;5021090;28;20021;-64
2022/06/03 18:56:26;;;;;;;9.50;4.38;;;;;;;;;;5039088;28;20024;-62
2022/06/03 18:59:11;;;;;;;9.85;4.10;;;;;;;;;;5039960;28;20510;-65
2022/06/03 19:01:41;;;;;;;10.02;4.28;;;;;;;;;;5035280;28;20096;-66
2022/06/03 19:04:10;;;;;;;6.60;4.25;;;;;;;;;;5028249;28;20104;-67
2022/06/03 19:06:55;;;;;;;10.57;4.40;;;;;;;;;;5032269;28;20061;-66
2022/06/03 19:09:39;;;;;;;6.47;3.88;;;;;;;;;;5029523;28;20026;-65
2022/06/03 19:12:11;;;;;;;10.30;4.55;;;;;;;;;;5027287;28;20053;-62
2022/06/03 19:14:37;;;;;;;;;;;;;;;;;;5030799;28;20029;-67
2022/06/03 19:17:06;;;;;;;9.40;3.80;;;;;;;;;;5019262;28;20142;-60
2022/06/03 19:19:48;;;;;;;6.80;4.32;;;;;;;;;;5029819;28;20021;-60
2022/06/03 19:22:14;;;;;;;;;;;;;;;;;;5029295;28;20496;-59
2022/06/03 19:24:40;;;;;;;7.45;4.30;;;;;;;;;;5029659;28;19913;-61
2022/06/03 19:27:14;;;;;;;12.85;9.20;;;;;;;;;;5029934;28;20026;-60
2022/06/03 19:29:40;;;;;;;14.90;8.73;;;;;;;;;;5028172;28;20526;-59
2022/06/03 19:32:07;;;;;;;9.77;6.68;;;;;;;;;;5030125;28;20176;-63
2022/06/03 19:34:44;;;;;;;10.35;5.32;;;;;;;;;;5029750;28;20049;-58
2022/06/03 19:37:10;;;;;;;11.23;5.35;;;;;;;;;;5028575;28;20079;-58
2022/06/03 19:39:41;;;;;;;12.25;5.30;;;;;;;;;;5020238;28;20025;-58
2022/06/03 19:42:13;;;;;;;11.85;5.57;;;;;;;;;;5020672;28;20038;-62
2022/06/03 19:44:39;;;;;;;10.40;4.60;;;;;;;;;;5020560;28;20029;-58
2022/06/03 19:47:05;;;;;;;9.68;4.50;;;;;;;;;;5030370;28;20020;-60
2022/06/03 19:49:43;;;;;;;9.13;4.75;;;;;;;;;;5034551;28;20017;-59
2022/06/03 19:52:15;;;;;;;9.02;4.25;;;;;;;;;;5031378;28;20577;-66
2022/06/03 19:54:46;;;;;;;9.43;4.60;;;;;;;;;;5031369;28;20056;-60
2022/06/03 19:57:21;;;;;;;9.48;4.72;;;;;;;;;;5029756;28;20033;-68
2022/06/03 19:59:51;;;;;;;13.45;6.25;;;;;;;;;;5045039;28;20071;-68
2022/06/03 20:02:21;;;;;;;12.52;6.25;;;;;;;;;;5040114;28;20028;-68
2022/06/03 20:04:58;;;;;;;11.35;6.03;;;;;;;;;;5036279;28;20410;-70
2022/06/03 20:07:30;;;;;;;12.40;5.88;;;;;;;;;;5033095;28;20064;-61
2022/06/03 20:09:56;;;;;;;;;;;;;;;;;;5032476;28;20096;-63
2022/06/03 20:15:33;;;;;;;9.65;4.80;;;;;;;;;;5030392;28;20068;-65
2022/06/03 20:18:01;;;;;;;7.55;4.78;;;;;;;;;;5033504;28;20032;-65
2022/06/03 20:20:30;;;;;;;9.10;5.38;;;;;;;;;;5030549;28;20362;-64
2022/06/03 20:23:13;;;;;;;8.98;5.22;;;;;;;;;;5034254;28;20029;-63
2022/06/03 20:25:42;;;;;;;11.48;5.53;;;;;;;;;;5031332;28;20108;-63
2022/06/03 20:28:35;;;;;;;10.63;4.75;;;;;;;;;;5040400;28;20021;-64
2022/06/03 20:31:26;;;;;;;9.75;4.50;;;;;;;;;;5043561;28;20052;-68
2022/06/03 20:33:53;;;;;;;6.22;3.75;;;;;;;;;;5013588;28;20156;-66
2022/06/03 20:36:23;;;;;;;11.38;4.95;;;;;;;;;;5026258;28;20079;-70
2022/06/03 20:39:08;;;;;;;7.45;4.65;;;;;;;;;;5027697;28;20120;-75
2022/06/03 20:41:44;;;;;;;6.00;4.07;;;;;;;;;;5010728;28;20033;-63
2022/06/03 20:44:16;;;;;;;9.93;4.50;;;;;;;;;;5026683;28;20188;-68
2022/06/03 20:46:50;;;;;;;9.68;4.72;;;;;;;;;;5026287;28;20033;-63
2022/06/03 20:49:21;;;;;;;9.93;5.00;;;;;;;;;;5027139;28;20037;-63
2022/06/03 20:51:49;;;;;;;9.40;4.70;;;;;;;;;;5026859;28;20030;-63
2022/06/03 20:54:26;;;;;;;11.40;4.53;;;;;;;;;;5027380;28;20117;-74
2022/06/03 20:56:57;;;;;;;9.48;5.00;;;;;;;;;;5026736;28;20120;-63
2022/06/03 20:59:28;;;;;;;11.57;5.25;;;;;;;;;;5029724;28;20025;-73
2022/06/03 21:01:57;;;;;;;9.43;4.97;;;;;;;;;;5030963;28;20029;-64
2022/06/03 21:12:53;;;;;;;11.50;5.63;;;;;;;;;;5045492;28;20073;-63
2022/06/03 21:15:22;;;;;;;10.85;5.70;;;;;;;;;;5032411;28;20076;-63
2022/06/03 21:17:49;;;;;;;8.50;5.50;;;;;;;;;;5021435;28;20036;-62
2022/06/03 21:20:15;;;;;;;14.00;5.80;;;;;;;;;;5042168;28;20412;-62
2022/06/03 21:22:47;;;;;;;10.77;6.05;;;;;;;;;;5040246;28;20083;-68
2022/06/03 21:25:13;;;;;;;9.93;5.28;;;;;;;;;;5049779;28;20100;-63
2022/06/03 21:27:39;;;;;;;13.52;6.15;;;;;;;;;;5037138;28;20105;-62
2022/06/03 21:30:06;;;;;;;12.05;5.78;;;;;;;;;;5044963;28;20097;-63
2022/06/03 21:32:47;;;;;;;11.07;5.82;;;;;;;;;;5044462;28;20100;-62
2022/06/03 21:35:26;;;;;;;9.45;6.35;;;;;;;;;;5052452;28;20021;-62
2022/06/03 21:37:58;;;;;;;10.00;6.03;;;;;;;;;;5053129;28;20029;-63
2022/06/03 21:40:31;;;;;;;12.20;6.38;;;;;;;;;;5042124;28;20499;-66
2022/06/03 21:43:02;;;;;;;10.95;5.60;;;;;;;;;;5032941;28;20026;-62
2022/06/03 21:45:36;;;;;;;15.00;5.95;;;;;;;;;;5033139;28;20029;-67
2022/06/03 21:48:19;;;;;;;9.73;5.93;;;;;;;;;;5033045;28;20072;-63
2022/06/03 21:50:51;;;;;;;10.90;6.32;;;;;;;;;;5033065;28;20033;-67
2022/06/03 21:53:20;;;;;;;10.25;5.90;;;;;;;;;;5033075;28;20117;-62
2022/06/03 21:56:07;;;;;;;15.40;6.15;;;;;;;;;;5033155;28;20082;-62
2022/06/03 21:58:57;;;;;;;11.55;6.20;;;;;;;;;;5033358;28;20101;-61
2022/06/03 22:01:24;;;;;;;11.50;6.18;;;;;;;;;;5033075;28;20749;-62
2022/06/03 22:03:53;;;;;;;9.73;5.88;;;;;;;;;;5033175;28;20021;-62
2022/06/03 22:06:19;;;;;;;11.60;6.30;;;;;;;;;;5032657;28;20171;-62
2022/06/03 22:08:45;;;;;;;12.07;6.38;;;;;;;;;;5032719;28;20089;-63
2022/06/03 22:13:56;;;;;;;15.25;6.32;;;;;;;;;;5032528;28;20084;-62
2022/06/03 22:16:22;;;;;;;10.02;6.43;;;;;;;;;;5032657;28;20033;-63
2022/06/03 22:18:48;;;;;;;15.93;6.25;;;;;;;;;;5032552;28;20493;-62
2022/06/03 22:21:14;;;;;;;9.25;5.40;;;;;;;;;;5032275;28;20021;-62
2022/06/03 22:23:40;;;;;;;9.45;5.22;;;;;;;;;;5032249;28;20087;-64
2022/06/03 22:26:25;;;;;;;7.90;4.78;;;;;;;;;;5032444;28;20076;-62
2022/06/03 22:28:57;;;;;;;7.85;4.82;;;;;;;;;;5032581;28;20037;-63
2022/06/03 22:31:34;;;;;;;7.63;4.35;;;;;;;;;;5032078;28;20025;-63
2022/06/03 22:34:05;;;;;;;8.95;4.78;;;;;;;;;;5032299;28;20033;-62
2022/06/03 22:36:36;;;;;;;7.70;4.85;;;;;;;;;;5032261;28;20030;-63
2022/06/03 22:39:05;;;;;;;7.50;4.50;;;;;;;;;;5032255;28;20034;-63
2022/06/03 22:41:31;;;;;;;6.25;4.45;;;;;;;;;;5032199;28;20029;-62
